< Typhoon 195205 1952 Season Typhoon 195207 >
Typhoon 195206 (HARRIET)
General InformationTrack Information on Google Maps || Disaster Info.ResourceGoogle EarthGE AnimationAtom FeedGeoJSON
Detalied Best Track (Time Zone = UTC)
Year Month Day Hour Lat. Long. Pressure (hPa) Wind (kt) Class Image Chart
1952 7 24 00 8.8 134.0 1006 0 2 -- Chart
1952 7 24 06 9.0 133.2 1004 0 2 -- Chart
1952 7 24 12 9.6 132.5 1004 0 2 -- Chart
1952 7 24 18 10.3 132.0 1004 0 2 -- Chart
1952 7 25 00 11.2 132.0 1002 0 2 -- Chart
1952 7 25 06 12.1 132.0 1002 0 2 -- Chart
1952 7 25 12 13.1 131.8 1002 0 2 -- Chart
1952 7 25 18 14.0 131.5 1002 0 2 -- Chart
1952 7 26 00 14.8 131.2 1002 0 2 -- Chart
1952 7 26 06 15.5 130.7 1002 0 2 -- Chart
1952 7 26 12 16.0 130.0 1002 0 2 -- Chart
1952 7 26 18 16.2 129.2 1000 0 2 -- Chart
1952 7 27 00 16.4 128.3 998 0 2 -- Chart
1952 7 27 06 16.5 127.5 995 0 9 -- Chart
1952 7 27 12 16.7 126.4 990 0 9 -- Chart
1952 7 27 18 17.1 125.3 985 0 9 -- Chart
1952 7 28 00 17.7 124.4 980 0 9 -- Chart
1952 7 28 06 18.3 123.7 980 0 9 -- Chart
1952 7 28 12 19.1 122.7 990 0 9 -- Chart
1952 7 28 18 19.5 121.2 990 0 9 -- Chart
1952 7 29 00 20.1 119.9 985 0 9 -- Chart
1952 7 29 06 20.9 118.9 985 0 9 -- Chart
1952 7 29 12 22.0 117.2 985 0 9 -- Chart
1952 7 29 18 22.9 115.3 985 0 9 -- Chart
1952 7 30 00 24.0 113.3 990 0 9 -- Chart
1952 7 30 06 24.6 112.0 990 0 2 -- Chart
Japan Meteorological Agency Best Track Data | Correction Date : 1990-10-17
< Typhoon 195205 1952 Season Typhoon 195207 >

Help